Time;durP1;ratioP1;P1;durP2;ratioP2;P2;SDS_P1;SDS_P2;PMS_P1;PMS_P2;Temp;Humidity;BMP_temperature;BMP_pressure;BME280_temperature;BME280_humidity;BME280_pressure;Samples;Min_cycle;Max_cycle;Signal;HPM_P1;HPM_P2
2023/10/08 00:01:55;;;;;;;7.60;5.07;;;;;;;12.49;100.00;97638.03;5041716;28;20205;-51
2023/10/08 00:04:23;;;;;;;7.40;4.57;;;;;;;12.44;100.00;97633.13;5040994;28;20208;-51
2023/10/08 00:06:52;;;;;;;7.20;5.30;;;;;;;12.45;100.00;97636.63;5042097;28;20226;-52
2023/10/08 00:09:20;;;;;;;5.10;4.57;;;;;;;12.41;100.00;97638.69;5041047;28;20233;-52
2023/10/08 00:11:53;;;;;;;6.23;5.00;;;;;;;12.39;100.00;97635.34;5041425;28;20253;-51
2023/10/08 00:14:21;;;;;;;5.63;4.33;;;;;;;12.38;100.00;97638.09;5041193;28;20204;-51
2023/10/08 00:16:49;;;;;;;7.13;5.10;;;;;;;12.38;100.00;97640.75;5041677;28;20587;-53
2023/10/08 00:19:18;;;;;;;6.93;4.37;;;;;;;12.37;100.00;97637.25;5040718;28;20207;-50
2023/10/08 00:21:48;;;;;;;6.43;4.77;;;;;;;12.33;100.00;97635.00;5041393;28;20353;-52
2023/10/08 00:24:15;;;;;;;7.43;5.20;;;;;;;12.34;100.00;97634.88;5040706;28;20679;-50
2023/10/08 00:26:43;;;;;;;6.03;5.00;;;;;;;12.34;100.00;97634.88;5040820;28;20666;-52
2023/10/08 00:29:16;;;;;;;7.20;4.93;;;;;;;12.33;100.00;97630.53;5040749;28;20235;-53
2023/10/08 00:31:44;;;;;;;6.50;4.70;;;;;;;12.31;100.00;97632.50;5040885;28;20741;-51
2023/10/08 00:34:13;;;;;;;6.40;4.30;;;;;;;12.28;100.00;97638.06;5041759;28;20829;-51
2023/10/08 00:36:41;;;;;;;6.03;4.50;;;;;;;12.25;100.00;97643.63;5046826;28;20238;-52
2023/10/08 00:39:13;;;;;;;5.53;4.37;;;;;;;12.24;100.00;97641.94;5045960;28;20210;-51
2023/10/08 00:41:42;;;;;;;6.97;5.03;;;;;;;12.16;100.00;97641.72;5045673;28;20207;-52
2023/10/08 00:44:15;;;;;;;6.20;4.70;;;;;;;12.21;100.00;97646.66;5045721;28;20230;-58
2023/10/08 00:46:47;;;;;;;5.27;4.57;;;;;;;12.21;100.00;97644.00;5045094;28;20644;-52
2023/10/08 00:49:35;;;;;;;7.87;5.00;;;;;;;12.15;100.00;97641.88;5044814;28;20199;-53
2023/10/08 00:52:26;;;;;;;5.40;4.57;;;;;;;12.11;100.00;97635.13;5045925;28;20668;-53
2023/10/08 00:55:06;;;;;;;6.37;4.53;;;;;;;12.16;100.00;97627.63;5040965;28;20203;-52
2023/10/08 00:57:35;;;;;;;6.97;4.93;;;;;;;12.13;100.00;97627.88;5040576;28;20713;-51
2023/10/08 01:00:06;;;;;;;6.53;4.53;;;;;;;12.10;100.00;97634.28;5041239;28;20318;-50
2023/10/08 01:02:44;;;;;;;6.20;5.07;;;;;;;12.09;100.00;97632.59;5041076;28;20199;-52
2023/10/08 01:05:12;;;;;;;6.50;4.63;;;;;;;12.11;100.00;97629.84;5041055;28;20226;-51
2023/10/08 01:07:44;;;;;;;6.37;5.03;;;;;;;12.14;100.00;97630.41;5041472;28;20204;-52
2023/10/08 01:10:13;;;;;;;6.57;4.67;;;;;;;12.13;100.00;97625.22;5041182;28;20219;-52
2023/10/08 01:12:45;;;;;;;6.13;4.70;;;;;;;12.07;100.00;97625.75;5040493;28;20210;-53
2023/10/08 01:15:23;;;;;;;5.83;4.90;;;;;;;12.02;100.00;97623.47;5040596;28;20207;-51
2023/10/08 01:17:57;;;;;;;7.57;5.00;;;;;;;12.04;100.00;97613.59;5040959;28;20203;-52
2023/10/08 01:20:37;;;;;;;7.87;4.80;;;;;;;12.03;100.00;97625.16;5040463;28;20289;-51
2023/10/08 01:23:10;;;;;;;7.07;5.00;;;;;;;12.06;100.00;97616.09;5040848;28;20235;-51
2023/10/08 01:25:40;;;;;;;7.03;4.63;;;;;;;12.03;100.00;97611.91;5040767;28;20199;-52
2023/10/08 01:28:15;;;;;;;6.90;4.63;;;;;;;12.03;100.00;97606.59;5044388;28;20183;-50
2023/10/08 01:30:42;;;;;;;6.40;4.33;;;;;;;12.04;100.00;97607.47;5044463;28;20222;-51
2023/10/08 01:33:13;;;;;;;8.60;4.70;;;;;;;12.01;100.00;97608.53;5044411;28;20214;-51
2023/10/08 01:35:40;;;;;;;6.93;4.80;;;;;;;12.02;100.00;97610.22;5044643;28;20245;-53
2023/10/08 01:38:08;;;;;;;6.17;4.80;;;;;;;12.04;100.00;97615.41;5044320;28;20537;-51
2023/10/08 01:40:35;;;;;;;7.03;4.73;;;;;;;12.01;100.00;97613.03;5044213;28;20227;-52
2023/10/08 01:43:04;;;;;;;6.23;4.60;;;;;;;11.97;100.00;97617.75;5044462;28;20206;-51
2023/10/08 01:45:31;;;;;;;5.57;4.67;;;;;;;11.91;100.00;97608.47;5044103;28;20222;-52
2023/10/08 01:47:58;;;;;;;7.10;4.30;;;;;;;11.85;100.00;97603.69;5043454;28;20845;-52
2023/10/08 01:50:25;;;;;;;7.03;4.20;;;;;;;11.86;100.00;97613.31;5043773;28;20254;-52
2023/10/08 01:52:52;;;;;;;6.30;4.80;;;;;;;11.85;100.00;97598.38;5044195;28;20257;-50
2023/10/08 01:55:21;;;;;;;7.07;4.97;;;;;;;11.78;100.00;97601.66;5044524;28;20223;-51
2023/10/08 01:57:49;;;;;;;7.63;4.20;;;;;;;11.75;100.00;97594.81;5043841;28;20845;-52
2023/10/08 02:00:19;;;;;;;5.67;4.40;;;;;;;11.74;100.00;97598.44;5044132;28;20203;-51
2023/10/08 02:02:45;;;;;;;8.30;4.50;;;;;;;11.66;100.00;97597.34;5043983;28;20195;-53
2023/10/08 02:05:14;;;;;;;5.97;4.20;;;;;;;11.62;100.00;97586.16;5043254;28;20208;-52
2023/10/08 02:07:41;;;;;;;5.27;4.00;;;;;;;11.64;100.00;97589.53;5043505;28;20215;-51
2023/10/08 02:10:10;;;;;;;7.03;5.00;;;;;;;11.62;100.00;97588.78;5043590;28;20196;-52
2023/10/08 02:12:38;;;;;;;7.00;4.73;;;;;;;11.56;100.00;97581.38;5043424;28;20230;-51
2023/10/08 02:15:06;;;;;;;6.07;4.30;;;;;;;11.48;100.00;97587.28;5043787;28;20204;-52
2023/10/08 02:17:33;;;;;;;7.23;4.90;;;;;;;11.47;100.00;97587.44;5043568;28;20277;-52
2023/10/08 02:19:59;;;;;;;6.57;4.33;;;;;;;11.47;100.00;97582.13;5043328;28;20215;-51
2023/10/08 02:22:27;;;;;;;7.47;4.90;;;;;;;11.48;100.00;97583.78;5042933;28;20195;-50
2023/10/08 02:25:00;;;;;;;5.40;4.27;;;;;;;11.47;100.00;97574.19;5043842;28;20285;-52
2023/10/08 02:27:27;;;;;;;6.63;4.87;;;;;;;11.46;100.00;97581.28;5043243;28;20211;-51
2023/10/08 02:29:55;;;;;;;7.03;4.83;;;;;;;11.45;100.00;97576.94;5043081;28;20203;-53
2023/10/08 02:32:22;;;;;;;8.47;4.60;;;;;;;11.44;100.00;97583.19;5043145;28;20345;-53
2023/10/08 02:34:50;;;;;;;7.60;4.30;;;;;;;11.40;100.00;97581.78;5042798;28;20208;-52
2023/10/08 02:37:16;;;;;;;6.23;4.37;;;;;;;11.39;100.00;97579.25;5042848;28;20315;-53
2023/10/08 02:39:44;;;;;;;6.00;4.67;;;;;;;11.38;100.00;97583.72;5043038;28;20196;-52
2023/10/08 02:42:14;;;;;;;6.27;4.43;;;;;;;11.38;100.00;97583.72;5042786;28;20628;-51
2023/10/08 02:44:41;;;;;;;8.00;4.70;;;;;;;11.31;100.00;97582.53;5043265;28;20211;-51
2023/10/08 02:47:11;;;;;;;6.93;5.03;;;;;;;11.31;100.00;97590.47;5043081;28;20299;-54
2023/10/08 02:49:40;;;;;;;7.13;4.57;;;;;;;11.29;100.00;97583.63;5042743;28;20214;-50
2023/10/08 02:52:08;;;;;;;7.97;4.80;;;;;;;11.27;100.00;97589.03;5043283;28;20215;-51
2023/10/08 02:54:37;;;;;;;5.67;4.67;;;;;;;11.27;100.00;97593.47;5043120;28;20254;-53
2023/10/08 02:57:14;;;;;;;7.63;4.93;;;;;;;11.26;100.00;97591.81;5042762;28;20257;-51
2023/10/08 02:59:42;;;;;;;6.67;4.60;;;;;;;11.31;100.00;97592.28;5042551;28;20227;-52
2023/10/08 03:02:15;;;;;;;7.27;4.83;;;;;;;11.30;100.00;97596.72;5043061;28;20234;-51
2023/10/08 03:04:42;;;;;;;8.07;4.57;;;;;;;11.30;100.00;97590.63;5044813;28;20203;-53
2023/10/08 03:07:20;;;;;;;5.90;4.67;;;;;;;11.30;100.00;97586.13;5045692;28;20203;-52
2023/10/08 03:09:49;;;;;;;5.87;4.80;;;;;;;11.26;100.00;97583.88;5043321;28;20640;-52
2023/10/08 03:12:17;;;;;;;6.17;4.80;;;;;;;11.23;100.00;97586.78;5043144;28;20227;-53
2023/10/08 03:14:52;;;;;;;7.50;4.90;;;;;;;11.23;100.00;97581.50;5042360;28;20694;-51
2023/10/08 03:17:25;;;;;;;5.53;4.40;;;;;;;11.22;100.00;97583.28;5042448;28;20210;-54
2023/10/08 03:19:52;;;;;;;5.87;4.37;;;;;;;11.19;100.00;97588.00;5041892;28;20199;-52
2023/10/08 03:22:19;;;;;;;7.13;4.57;;;;;;;11.19;100.00;97590.63;5041721;28;20210;-51
2023/10/08 03:24:48;;;;;;;5.13;4.37;;;;;;;11.20;100.00;97589.66;5042825;28;20218;-52
2023/10/08 03:27:20;;;;;;;8.47;4.80;;;;;;;11.23;100.00;97584.94;5044932;28;20204;-50
2023/10/08 03:29:48;;;;;;;7.43;4.87;;;;;;;11.21;100.00;97583.41;5045873;28;20202;-52
2023/10/08 03:32:16;;;;;;;6.03;4.87;;;;;;;11.19;100.00;97577.41;5045038;28;20251;-52
2023/10/08 03:34:47;;;;;;;7.50;5.10;;;;;;;11.20;100.00;97584.34;5046230;28;20222;-51
2023/10/08 03:37:19;;;;;;;7.47;4.83;;;;;;;11.20;100.00;97576.41;5046424;28;20671;-52
2023/10/08 03:40:00;;;;;;;6.50;4.53;;;;;;;11.16;100.00;97581.13;5047106;28;20253;-53
2023/10/08 03:42:30;;;;;;;7.03;4.97;;;;;;;11.11;100.00;97585.09;5041991;28;20674;-52
2023/10/08 03:44:57;;;;;;;6.47;4.90;;;;;;;11.07;100.00;97584.50;5041511;28;20199;-50
2023/10/08 03:47:26;;;;;;;6.73;4.37;;;;;;;11.06;100.00;97576.69;5042189;28;20207;-52
2023/10/08 03:49:54;;;;;;;6.67;4.57;;;;;;;11.09;100.00;97581.75;5041032;28;20298;-51
2023/10/08 03:52:23;;;;;;;5.93;4.37;;;;;;;11.04;100.00;97581.28;5041718;28;20671;-52
2023/10/08 03:55:04;;;;;;;6.63;4.70;;;;;;;11.02;100.00;97580.56;5041443;28;20620;-52
2023/10/08 03:57:41;;;;;;;9.13;4.53;;;;;;;11.03;100.00;97579.56;5041619;28;20199;-51
2023/10/08 04:00:12;;;;;;;7.70;4.90;;;;;;;11.02;100.00;97578.72;5041892;28;20580;-51
2023/10/08 04:02:41;;;;;;;7.57;4.20;;;;;;;11.02;100.00;97569.97;5042132;28;20262;-53
2023/10/08 04:05:19;;;;;;;7.77;4.63;;;;;;;11.01;100.00;97573.59;5041057;28;20203;-50
2023/10/08 04:08:05;;;;;;;7.50;4.30;;;;;;;10.99;100.00;97569.25;5041694;28;20234;-53
2023/10/08 04:11:07;;;;;;;8.40;4.07;;;;;;;11.04;100.00;97578.63;5041510;28;20206;-53
2023/10/08 04:13:28;;;;;;;8.53;4.10;;;;;;;11.06;100.00;97579.31;5040835;28;20231;-52
2023/10/08 04:15:55;;;;;;;6.37;4.40;;;;;;;11.00;100.00;97578.03;5040843;28;20200;-52
2023/10/08 04:18:21;;;;;;;7.07;4.37;;;;;;;10.96;100.00;97577.44;5041436;28;20207;-53
2023/10/08 04:21:00;;;;;;;6.87;4.47;;;;;;;10.94;100.00;97571.44;5040836;28;20533;-53
2023/10/08 04:23:27;;;;;;;5.77;4.33;;;;;;;10.97;100.00;97570.34;5041023;28;20269;-52
2023/10/08 04:25:54;;;;;;;9.00;4.53;;;;;;;10.97;100.00;97573.00;5041614;28;20222;-53
2023/10/08 04:28:21;;;;;;;7.60;4.97;;;;;;;10.95;100.00;97572.25;5041429;28;20306;-52
2023/10/08 04:30:50;;;;;;;6.17;4.53;;;;;;;10.91;100.00;97569.00;5041090;28;20549;-51
2023/10/08 04:33:19;;;;;;;8.73;4.83;;;;;;;10.88;100.00;97563.97;5041041;28;20200;-53
2023/10/08 04:35:51;;;;;;;8.97;4.73;;;;;;;10.90;100.00;97569.16;5040457;28;20207;-52
2023/10/08 04:38:21;;;;;;;6.53;4.73;;;;;;;10.81;100.00;97572.50;5041356;28;20218;-53
2023/10/08 04:40:51;;;;;;;6.47;4.53;;;;;;;10.84;100.00;97567.81;5041217;28;20881;-53
2023/10/08 04:43:23;;;;;;;6.87;4.90;;;;;;;10.81;100.00;97565.41;5041358;28;20203;-52
2023/10/08 04:45:52;;;;;;;7.00;4.60;;;;;;;10.80;100.00;97563.75;5041402;28;20226;-53
2023/10/08 04:48:20;;;;;;;6.87;4.30;;;;;;;10.82;100.00;97559.16;5040826;28;20646;-52
2023/10/08 04:50:57;;;;;;;6.83;4.50;;;;;;;10.83;100.00;97563.50;5040555;28;20234;-52
2023/10/08 04:53:31;;;;;;;5.77;4.60;;;;;;;10.79;100.00;97570.00;5041087;28;20338;-53
2023/10/08 04:56:02;;;;;;;7.97;5.33;;;;;;;10.75;100.00;97573.00;5041437;28;20203;-52
2023/10/08 04:58:33;;;;;;;5.50;4.33;;;;;;;10.77;100.00;97571.91;5041030;28;20191;-53
2023/10/08 05:01:17;;;;;;;8.53;4.90;;;;;;;10.77;100.00;97576.38;5042808;28;20199;-53
2023/10/08 05:04:06;;;;;;;9.20;4.53;;;;;;;10.74;100.00;97577.44;5045399;28;20214;-52
2023/10/08 05:06:50;;;;;;;8.13;4.93;;;;;;;10.79;100.00;97583.22;5044585;28;20294;-52
2023/10/08 05:09:22;;;;;;;6.43;4.50;;;;;;;10.72;100.00;97578.53;5044884;28;20273;-51
2023/10/08 05:12:10;;;;;;;8.23;4.77;;;;;;;10.69;100.00;97584.94;5045383;28;20270;-51
2023/10/08 05:14:45;;;;;;;9.03;4.97;;;;;;;10.71;100.00;97580.34;5044249;28;20291;-52
2023/10/08 05:17:11;;;;;;;6.10;4.70;;;;;;;10.70;100.00;97576.00;5044827;28;20563;-53
2023/10/08 05:20:17;;;;;;;5.90;4.20;;;;;;;10.70;100.00;97577.84;5044523;28;20277;-51
2023/10/08 05:22:44;;;;;;;8.13;4.73;;;;;;;10.71;100.00;97571.56;5047722;28;20258;-53
2023/10/08 05:25:35;;;;;;;8.67;4.53;;;;;;;10.73;100.00;97581.06;5046352;28;20199;-52
2023/10/08 05:28:09;;;;;;;7.83;4.17;;;;;;;10.71;100.00;97574.19;5046477;28;20208;-51
2023/10/08 05:30:53;;;;;;;8.70;4.90;;;;;;;10.69;100.00;97568.22;5044088;28;20270;-51
2023/10/08 05:33:25;;;;;;;9.57;4.23;;;;;;;10.73;100.00;97574.94;5044189;28;20215;-52
2023/10/08 05:36:02;;;;;;;7.33;4.50;;;;;;;10.78;100.00;97572.75;5044265;28;20210;-51
2023/10/08 05:38:48;;;;;;;7.50;4.67;;;;;;;10.79;100.00;97577.09;5044377;28;20216;-52
2023/10/08 05:41:38;;;;;;;8.57;4.77;;;;;;;10.80;100.00;97579.63;5044386;28;20215;-53
2023/10/08 05:44:19;;;;;;;10.53;4.50;;;;;;;10.76;100.00;97580.00;5044644;28;20213;-52
2023/10/08 05:49:38;;;;;;;7.53;4.50;;;;;;;10.72;100.00;97591.78;5042338;28;20203;-52
2023/10/08 05:55:14;;;;;;;10.90;4.60;;;;;;;10.76;100.00;97595.84;5043858;28;20723;-52
2023/10/08 05:57:52;;;;;;;7.53;4.60;;;;;;;10.75;100.00;97602.09;5043883;28;20556;-52
2023/10/08 06:03:21;;;;;;;6.93;4.40;;;;;;;10.80;100.00;97597.31;5049730;28;20290;-53
2023/10/08 06:06:02;;;;;;;12.70;5.00;;;;;;;10.82;100.00;97601.50;5048415;28;20291;-53
2023/10/08 06:08:48;;;;;;;8.20;4.80;;;;;;;10.87;100.00;97603.78;5049872;28;20643;-52
2023/10/08 06:11:27;;;;;;;8.43;5.10;;;;;;;10.86;100.00;97605.59;5047375;28;20230;-52
2023/10/08 06:14:00;;;;;;;9.87;4.70;;;;;;;10.91;100.00;97610.53;5043593;28;20208;-52
2023/10/08 06:16:31;;;;;;;7.57;5.17;;;;;;;10.98;100.00;97606.44;5043856;28;20562;-52
2023/10/08 06:18:57;;;;;;;8.43;4.70;;;;;;;11.00;100.00;97615.09;5043524;28;20565;-53
2023/10/08 06:21:26;;;;;;;6.37;4.63;;;;;;;11.05;100.00;97618.22;5043626;28;20207;-52
2023/10/08 06:23:56;;;;;;;9.13;5.03;;;;;;;11.13;100.00;97613.13;5044175;28;20243;-53
2023/10/08 06:26:25;;;;;;;8.90;4.53;;;;;;;11.23;100.00;97615.91;5052662;28;20207;-52
2023/10/08 06:28:57;;;;;;;6.23;5.20;;;;;;;11.26;100.00;97616.50;5054333;28;20207;-52
2023/10/08 06:31:26;;;;;;;8.57;5.30;;;;;;;11.29;100.00;97615.41;5044940;28;20202;-51
2023/10/08 06:33:53;;;;;;;7.87;5.20;;;;;;;11.33;100.00;97620.34;5043176;28;20207;-52
2023/10/08 06:36:24;;;;;;;6.83;5.10;;;;;;;11.42;100.00;97616.94;5044280;28;20286;-51
2023/10/08 06:38:51;;;;;;;7.43;5.30;;;;;;;11.50;100.00;97616.31;5043446;28;20199;-52
2023/10/08 06:41:18;;;;;;;6.87;5.33;;;;;;;11.56;100.00;97613.16;5043387;28;20278;-58
2023/10/08 06:43:48;;;;;;;9.03;5.50;;;;;;;11.62;100.00;97622.44;5043978;28;20203;-53
2023/10/08 06:46:15;;;;;;;7.30;5.30;;;;;;;11.70;100.00;97631.41;5042683;28;20620;-54
2023/10/08 06:48:43;;;;;;;9.30;5.57;;;;;;;11.85;100.00;97630.19;5042357;28;20207;-54
2023/10/08 06:51:12;;;;;;;7.47;5.57;;;;;;;11.94;100.00;97634.72;5042297;28;20207;-55
2023/10/08 06:53:39;;;;;;;8.10;5.40;;;;;;;12.02;100.00;97647.34;5042879;28;20567;-52
2023/10/08 06:56:06;;;;;;;8.60;5.30;;;;;;;12.07;100.00;97645.16;5042964;28;20540;-54
2023/10/08 06:58:33;;;;;;;8.17;5.73;;;;;;;12.22;100.00;97646.50;5043135;28;20208;-53
2023/10/08 07:01:04;;;;;;;7.83;5.63;;;;;;;12.32;100.00;97633.34;5042914;28;20203;-55
2023/10/08 07:03:31;;;;;;;8.80;6.43;;;;;;;12.37;100.00;97639.91;5042791;28;20206;-54
2023/10/08 07:05:59;;;;;;;8.93;6.20;;;;;;;12.38;100.00;97632.81;5041788;28;20207;-54
2023/10/08 07:08:29;;;;;;;9.77;6.13;;;;;;;12.41;100.00;97632.53;5042475;28;20195;-53
2023/10/08 07:10:56;;;;;;;8.47;6.30;;;;;;;12.56;100.00;97641.84;5042686;28;20203;-55
2023/10/08 07:13:24;;;;;;;7.57;5.73;;;;;;;12.63;100.00;97643.00;5042644;28;20231;-52
2023/10/08 07:15:50;;;;;;;10.63;7.30;;;;;;;12.75;100.00;97636.63;5042285;28;20269;-54
2023/10/08 07:18:24;;;;;;;11.17;6.33;;;;;;;12.88;100.00;97634.63;5041863;28;20211;-55
2023/10/08 07:20:53;;;;;;;8.53;6.33;;;;;;;12.97;100.00;97635.63;5041836;28;20211;-54
2023/10/08 07:23:24;;;;;;;9.80;6.73;;;;;;;13.09;100.00;97633.72;5041614;28;20231;-54
2023/10/08 07:25:58;;;;;;;9.83;6.60;;;;;;;13.21;100.00;97638.84;5041100;28;20238;-53
2023/10/08 07:28:26;;;;;;;12.20;7.00;;;;;;;13.26;100.00;97635.75;5043025;28;20222;-53
2023/10/08 07:30:52;;;;;;;10.87;6.73;;;;;;;13.30;100.00;97631.84;5042091;28;20223;-54
2023/10/08 07:33:19;;;;;;;10.33;6.43;;;;;;;13.35;100.00;97633.16;5042290;28;20219;-54
2023/10/08 07:35:54;;;;;;;9.77;6.53;;;;;;;13.41;100.00;97648.53;5041611;28;20533;-54
2023/10/08 07:38:22;;;;;;;7.33;6.47;;;;;;;13.52;100.00;97649.41;5042272;28;20206;-54
2023/10/08 07:40:49;;;;;;;10.57;6.53;;;;;;;13.55;100.00;97649.97;5042630;28;21297;-52
2023/10/08 07:43:20;;;;;;;8.90;6.27;;;;;;;13.63;100.00;97663.41;5041553;28;20290;-54
2023/10/08 07:45:46;;;;;;;8.43;6.60;;;;;;;13.73;100.00;97650.97;5041919;28;20621;-54
2023/10/08 07:48:14;;;;;;;10.27;7.13;;;;;;;13.82;100.00;97660.78;5041832;28;20234;-54
2023/10/08 07:50:45;;;;;;;10.67;7.37;;;;;;;13.90;100.00;97658.25;5042046;28;20212;-54
2023/10/08 07:53:17;;;;;;;8.30;6.30;;;;;;;13.94;100.00;97667.66;5041213;28;20220;-62
2023/10/08 07:55:47;;;;;;;9.20;6.80;;;;;;;14.02;100.00;97666.13;5041449;28;20199;-55
2023/10/08 07:58:15;;;;;;;8.25;6.45;;;;;;;14.11;100.00;97670.59;5041702;28;20258;-53
2023/10/08 08:00:51;;;;;;;7.83;6.80;;;;;;;14.20;100.00;97665.28;5041527;28;20287;-50
2023/10/08 08:03:20;;;;;;;9.13;6.30;;;;;;;14.28;100.00;97656.56;5041652;28;20647;-53
2023/10/08 08:05:48;;;;;;;9.07;6.63;;;;;;;14.35;100.00;97666.53;5040984;28;20620;-51
2023/10/08 08:08:17;;;;;;;9.23;6.67;;;;;;;14.39;100.00;97657.31;5041812;28;20208;-52
2023/10/08 08:10:46;;;;;;;8.98;6.45;;;;;;;14.49;100.00;97659.94;5041705;28;20211;-50
2023/10/08 08:13:13;;;;;;;7.43;6.28;;;;;;;14.58;100.00;97667.09;5041317;28;20235;-52
2023/10/08 08:15:41;;;;;;;7.60;6.15;;;;;;;14.66;100.00;97672.53;5041405;28;20218;-53
2023/10/08 08:18:18;;;;;;;6.70;5.88;;;;;;;14.78;100.00;97671.38;5041255;28;20212;-52
2023/10/08 08:20:45;;;;;;;8.82;6.35;;;;;;;14.89;100.00;97679.22;5041530;28;20249;-52
2023/10/08 08:23:13;;;;;;;6.72;5.82;;;;;;;14.99;100.00;97679.16;5040867;28;20227;-53
2023/10/08 08:26:06;;;;;;;8.18;6.22;;;;;;;15.08;100.00;97680.13;5041378;28;20215;-52
2023/10/08 08:28:34;;;;;;;10.88;7.13;;;;;;;15.22;100.00;97674.31;5041364;28;20200;-53
2023/10/08 08:31:13;;;;;;;7.75;6.15;;;;;;;15.33;100.00;97671.47;5041097;28;20537;-53
2023/10/08 08:33:52;;;;;;;9.48;6.55;;;;;;;15.42;100.00;97671.41;5040630;28;20688;-51
2023/10/08 08:36:19;;;;;;;7.53;5.80;;;;;;;15.53;100.00;97673.09;5040405;28;20695;-51
2023/10/08 08:38:46;;;;;;;6.85;6.15;;;;;;;15.64;100.00;97672.88;5041077;28;20208;-52
2023/10/08 08:41:12;;;;;;;9.43;6.40;;;;;;;15.76;100.00;97673.53;5041360;28;20230;-51
2023/10/08 08:43:43;;;;;;;8.93;5.88;;;;;;;15.87;100.00;97676.78;5041358;28;20203;-51
2023/10/08 08:46:12;;;;;;;9.02;6.22;;;;;;;16.00;100.00;97672.94;5041214;28;20264;-58
2023/10/08 08:48:40;;;;;;;8.23;5.43;;;;;;;16.15;100.00;97674.09;5041288;28;20207;-54
2023/10/08 08:51:09;;;;;;;8.02;5.65;;;;;;;16.29;100.00;97677.06;5040758;28;20219;-52
2023/10/08 08:53:35;;;;;;;7.25;5.68;;;;;;;16.42;100.00;97671.31;5041110;28;20228;-52
2023/10/08 08:56:04;;;;;;;9.70;5.93;;;;;;;16.61;100.00;97665.84;5040696;28;20675;-52
2023/10/08 08:58:34;;;;;;;7.57;5.97;;;;;;;16.78;100.00;97667.63;5041271;28;20857;-52
2023/10/08 09:01:03;;;;;;;9.35;5.93;;;;;;;16.98;100.00;97678.09;5041033;28;20215;-52
2023/10/08 09:03:31;;;;;;;8.38;5.97;;;;;;;17.16;98.56;97670.84;5041224;28;20195;-52
2023/10/08 09:05:57;;;;;;;7.97;6.20;;;;;;;17.33;96.46;97669.94;5040607;28;20204;-52
2023/10/08 09:08:28;;;;;;;7.95;6.18;;;;;;;17.59;96.77;97676.09;5041242;28;20226;-53
2023/10/08 09:11:00;;;;;;;8.80;6.55;;;;;;;17.83;96.81;97669.97;5040739;28;20261;-53
2023/10/08 09:13:27;;;;;;;9.55;6.68;;;;;;;18.04;95.23;97675.72;5040715;28;20223;-51
2023/10/08 09:15:58;;;;;;;8.32;5.97;;;;;;;18.31;93.21;97669.25;5040818;28;20200;-53
2023/10/08 09:18:27;;;;;;;9.73;6.95;;;;;;;18.53;93.57;97673.16;5041094;28;20225;-52
2023/10/08 09:20:55;;;;;;;7.50;5.65;;;;;;;18.92;94.15;97670.59;5040404;28;20199;-51
2023/10/08 09:23:23;;;;;;;8.98;5.97;;;;;;;19.19;92.47;97654.94;5040749;28;20222;-51
2023/10/08 09:25:51;;;;;;;9.40;6.20;;;;;;;19.51;87.17;97670.13;5041170;28;20207;-51
2023/10/08 09:28:18;;;;;;;9.18;6.13;;;;;;;19.75;85.37;97659.28;5040778;28;20215;-51
2023/10/08 09:30:45;;;;;;;7.97;6.05;;;;;;;19.85;84.44;97661.72;5041249;28;20219;-51
2023/10/08 09:33:13;;;;;;;8.38;6.00;;;;;;;20.13;84.10;97660.22;5040550;28;20278;-54
2023/10/08 09:35:40;;;;;;;8.50;5.50;;;;;;;20.43;83.79;97653.16;5040204;28;20207;-51
2023/10/08 09:38:09;;;;;;;7.55;5.90;;;;;;;20.56;82.18;97645.31;5040577;28;20227;-51
2023/10/08 09:40:36;;;;;;;9.45;5.53;;;;;;;20.72;77.24;97661.31;5040696;28;20284;-51
2023/10/08 09:43:03;;;;;;;8.93;5.75;;;;;;;20.97;76.27;97658.38;5040629;28;20208;-51
2023/10/08 09:45:30;;;;;;;8.18;5.57;;;;;;;21.20;80.05;97649.25;5040505;28;20230;-53
2023/10/08 09:47:57;;;;;;;10.85;5.60;;;;;;;21.54;75.36;97656.75;5041906;28;20203;-52
2023/10/08 09:50:29;;;;;;;7.47;5.70;;;;;;;21.71;75.59;97660.09;5043766;28;20196;-52
2023/10/08 09:53:04;;;;;;;8.32;5.43;;;;;;;21.94;74.83;97657.28;5043763;28;20222;-52
2023/10/08 09:55:30;;;;;;;7.82;5.35;;;;;;;22.16;73.41;97658.97;5044307;28;20214;-52
2023/10/08 09:57:57;;;;;;;10.50;5.32;;;;;;;22.04;71.83;97653.25;5044007;28;20210;-50
2023/10/08 10:00:30;;;;;;;7.95;5.40;;;;;;;22.37;70.14;97650.91;5045333;28;20208;-56
2023/10/08 10:02:58;;;;;;;7.82;5.25;;;;;;;22.47;69.09;97646.03;5045506;28;20204;-52
2023/10/08 10:05:30;;;;;;;7.80;5.00;;;;;;;22.58;68.97;97661.69;5045524;28;20222;-52
2023/10/08 10:07:58;;;;;;;8.55;5.60;;;;;;;22.46;66.27;97652.44;5043736;28;20191;-51
2023/10/08 10:10:30;;;;;;;7.55;5.43;;;;;;;22.53;67.98;97652.53;5043863;28;20195;-51
2023/10/08 10:13:00;;;;;;;10.45;5.28;;;;;;;22.73;70.53;97657.09;5043204;28;20230;-52
2023/10/08 10:15:27;;;;;;;6.72;5.03;;;;;;;23.23;70.09;97650.63;5043924;28;20199;-51
2023/10/08 10:17:56;;;;;;;10.55;5.40;;;;;;;23.43;68.95;97653.44;5043917;28;20215;-50
2023/10/08 10:20:22;;;;;;;7.35;5.60;;;;;;;23.51;69.13;97652.47;5043394;28;20207;-54
2023/10/08 10:22:49;;;;;;;9.32;5.53;;;;;;;23.72;67.55;97650.50;5044276;28;20250;-53
2023/10/08 10:25:18;;;;;;;7.25;5.25;;;;;;;23.86;70.02;97656.78;5044067;28;20211;-54
2023/10/08 10:28:18;;;;;;;7.22;5.40;;;;;;;23.99;66.35;97650.56;5043981;28;20211;-52
2023/10/08 10:30:45;;;;;;;12.57;5.70;;;;;;;24.07;66.03;97658.50;5044639;28;20698;-51
2023/10/08 10:33:12;;;;;;;8.45;5.25;;;;;;;24.40;64.08;97651.34;5044982;28;20215;-52
2023/10/08 10:35:40;;;;;;;9.82;5.10;;;;;;;24.42;64.83;97651.97;5042958;28;20218;-50
2023/10/08 10:38:07;;;;;;;9.00;5.47;;;;;;;24.71;63.82;97654.31;5043731;28;20256;-52
2023/10/08 10:40:39;;;;;;;11.70;5.63;;;;;;;24.92;64.41;97658.69;5043391;28;20199;-54
2023/10/08 10:43:07;;;;;;;10.82;5.38;;;;;;;25.44;64.38;97646.94;5043251;28;20234;-54
2023/10/08 10:45:39;;;;;;;11.68;5.30;;;;;;;25.49;61.99;97652.56;5043439;28;20230;-52
2023/10/08 10:48:13;;;;;;;8.50;4.60;;;;;;;25.62;61.36;97644.44;5042828;28;20650;-51
2023/10/08 10:50:48;;;;;;;9.32;4.95;;;;;;;26.23;61.94;97646.69;5042978;28;20200;-52
2023/10/08 10:53:14;;;;;;;11.25;5.07;;;;;;;26.53;59.58;97653.19;5042801;28;20268;-52
2023/10/08 10:55:58;;;;;;;9.40;5.00;;;;;;;25.93;58.11;97646.41;5043152;28;20210;-52
2023/10/08 10:58:24;;;;;;;8.10;4.82;;;;;;;26.54;58.27;97641.28;5043021;28;20192;-51
2023/10/08 11:00:59;;;;;;;8.43;5.00;;;;;;;26.84;56.85;97635.25;5043319;28;20207;-52
2023/10/08 11:03:24;;;;;;;9.25;5.10;;;;;;;27.07;58.75;97640.88;5042672;28;20597;-51
2023/10/08 11:05:54;;;;;;;8.65;4.80;;;;;;;27.61;56.89;97631.97;5042313;28;20299;-57
2023/10/08 11:08:23;;;;;;;11.20;5.20;;;;;;;27.48;55.50;97640.28;5042265;28;20274;-53
2023/10/08 11:10:51;;;;;;;7.32;5.05;;;;;;;27.50;57.96;97628.13;5042493;28;20306;-53
2023/10/08 11:13:20;;;;;;;10.35;5.20;;;;;;;27.37;56.41;97630.97;5042652;28;20555;-52
2023/10/08 11:15:51;;;;;;;8.55;5.45;;;;;;;27.66;57.60;97624.81;5042636;28;20297;-52
2023/10/08 11:18:18;;;;;;;8.23;5.25;;;;;;;27.85;56.15;97617.47;5042421;28;20211;-51
2023/10/08 11:20:45;;;;;;;9.68;5.28;;;;;;;27.69;56.44;97624.38;5041771;28;20209;-51
2023/10/08 11:23:18;;;;;;;10.50;4.97;;;;;;;27.72;56.07;97614.91;5041779;28;20231;-51
2023/10/08 11:25:55;;;;;;;12.35;5.30;;;;;;;27.58;56.75;97616.97;5042684;28;20192;-53
2023/10/08 11:28:24;;;;;;;9.63;4.80;;;;;;;28.00;58.31;97607.03;5041713;28;20199;-53
2023/10/08 11:30:53;;;;;;;10.52;5.20;;;;;;;27.89;55.69;97610.50;5041383;28;20641;-51
2023/10/08 11:33:20;;;;;;;16.20;5.13;;;;;;;27.52;55.16;97604.31;5041734;28;20219;-52
2023/10/08 11:36:02;;;;;;;11.70;5.60;;;;;;;27.69;56.24;97599.06;5041766;28;20208;-51
2023/10/08 11:38:35;;;;;;;10.18;5.10;;;;;;;27.52;57.17;97603.47;5042108;28;20302;-51
2023/10/08 11:41:20;;;;;;;9.93;5.13;;;;;;;27.25;56.79;97602.88;5042220;28;20608;-52
2023/10/08 11:43:48;;;;;;;10.90;4.93;;;;;;;27.62;58.40;97593.72;5041991;28;20547;-54
2023/10/08 11:46:18;;;;;;;10.02;5.15;;;;;;;27.46;57.80;97596.19;5042173;28;20207;-52
2023/10/08 11:48:46;;;;;;;11.05;5.38;;;;;;;27.03;58.38;97596.22;5041011;28;20208;-52
2023/10/08 11:51:16;;;;;;;11.02;5.03;;;;;;;26.81;59.00;97594.94;5041737;28;20440;-53
2023/10/08 11:53:44;;;;;;;12.13;5.80;;;;;;;26.64;55.72;97587.34;5042419;28;20242;-52